createdAt,value
2019-04-11T02:51:03.531Z,33.60
2019-04-11T02:53:34.728Z,34.10
2019-04-11T02:56:06.281Z,34.90
2019-04-11T02:58:36.920Z,35.70
2019-04-11T03:01:09.584Z,36.60
2019-04-11T03:03:41.629Z,37.20
2019-04-11T03:06:11.146Z,37.70
2019-04-11T03:08:43.059Z,38.00
2019-04-11T03:11:14.208Z,38.20
2019-04-11T03:13:46.326Z,38.50
2019-04-11T03:16:30.017Z,38.60
2019-04-11T03:19:05.982Z,38.90
2019-04-11T03:21:21.908Z,39.10
2019-04-11T03:23:51.382Z,39.10
2019-04-11T03:26:21.829Z,38.90
2019-04-11T03:32:05.738Z,38.20
2019-04-11T04:17:49.718Z,35.50
2019-04-11T04:20:21.439Z,35.60
2019-04-11T04:22:54.385Z,35.60
2019-04-11T04:25:24.368Z,35.70
2019-04-11T04:27:56.670Z,35.70
2019-04-11T04:30:27.734Z,35.60
2019-04-11T04:32:58.200Z,35.60
2019-04-11T04:35:28.593Z,35.60
2019-04-11T07:59:33.762Z,38.20
2019-04-11T08:02:27.201Z,38.20
2019-04-11T08:16:59.529Z,38.00
2019-04-11T08:29:30.852Z,38.10
2019-04-11T08:32:04.570Z,38.10
2019-04-11T08:34:39.579Z,38.10
2019-04-11T08:37:12.243Z,38.10
2019-04-11T08:39:44.927Z,38.10
2019-04-11T08:42:17.985Z,38.10
2019-04-11T08:44:50.132Z,38.20
2019-04-11T08:47:22.532Z,38.20
2019-04-11T08:49:54.325Z,38.20
2019-04-11T08:52:27.912Z,38.20
2019-04-11T08:55:00.493Z,38.20
2019-04-11T08:57:32.539Z,38.20
2019-04-11T09:00:06.058Z,38.20
2019-04-11T09:02:38.752Z,38.20
2019-04-11T09:05:15.145Z,38.20
2019-04-11T09:07:45.721Z,38.20
2019-04-11T09:10:18.472Z,38.20
2019-04-11T09:12:50.961Z,38.30
2019-04-11T09:15:24.466Z,38.30
2019-04-11T09:18:04.199Z,38.30
2019-04-11T09:20:31.783Z,38.30
2019-04-11T09:23:03.769Z,38.30
2019-04-11T09:25:36.950Z,38.40
2019-04-11T09:28:09.381Z,38.40
2019-04-11T09:30:43.134Z,38.40
2019-04-11T09:33:17.106Z,38.40
2019-04-11T09:35:49.572Z,38.40
2019-04-11T09:38:22.166Z,38.30
2019-04-11T09:40:57.012Z,38.30
2019-04-11T09:43:29.411Z,38.20
2019-04-11T09:46:02.307Z,38.20
2019-04-11T09:48:35.225Z,38.20
2019-04-11T09:51:09.303Z,38.20
2019-04-11T09:53:42.943Z,38.20
2019-04-11T09:56:15.493Z,38.20
2019-04-11T09:58:48.332Z,38.20
2019-04-11T10:01:21.170Z,38.10
2019-04-11T10:03:52.969Z,38.10
2019-04-11T10:06:25.843Z,38.00
2019-04-11T10:08:59.628Z,38.00
2019-04-11T10:11:32.666Z,37.90
2019-04-11T10:14:05.245Z,37.90
2019-04-11T10:16:38.050Z,37.80
2019-04-11T10:19:11.698Z,37.70
2019-04-11T10:21:45.671Z,37.60
2019-04-11T10:24:20.599Z,37.40
2019-04-11T10:26:53.062Z,37.30
2019-04-11T10:29:27.484Z,37.10
2019-04-11T10:31:59.613Z,37.00
2019-04-11T10:34:33.478Z,36.80
2019-04-11T10:37:05.336Z,36.70
2019-04-11T10:39:38.007Z,36.60
2019-04-11T10:42:10.911Z,36.40
2019-04-11T10:44:43.993Z,36.30
2019-04-11T10:47:16.938Z,36.20
2019-04-11T10:49:50.470Z,36.00
2019-04-11T10:52:24.524Z,35.90
2019-04-11T10:54:57.498Z,35.80
2019-04-11T10:57:30.263Z,35.70
2019-04-11T11:00:03.121Z,35.60
2019-04-11T11:02:35.714Z,35.50
2019-04-11T11:05:07.729Z,35.40
2019-04-11T11:07:38.543Z,35.30
2019-04-11T11:52:59.495Z,34.20
2019-04-11T11:55:31.948Z,34.20
2019-04-11T11:58:04.558Z,34.10
2019-04-11T12:00:36.700Z,34.20
2019-04-11T12:03:10.556Z,34.10
2019-04-11T12:05:48.125Z,34.10
2019-04-11T12:08:18.185Z,34.00
2019-04-11T12:18:29.619Z,33.60
2019-04-11T12:25:02.867Z,33.40
2019-04-11T12:27:37.027Z,33.30
2019-04-11T12:33:47.828Z,33.10
2019-04-11T12:36:21.029Z,33.10
2019-04-11T12:38:54.848Z,33.00
2019-04-11T12:41:27.385Z,32.90
2019-04-11T12:44:00.111Z,32.90
2019-04-11T12:46:32.835Z,32.90
2019-04-11T12:49:05.431Z,32.80
2019-04-11T12:51:38.154Z,32.80
2019-04-11T12:54:10.074Z,32.70
2019-04-11T12:56:41.636Z,32.70
2019-04-11T12:59:12.685Z,32.60
2019-04-11T13:01:45.579Z,32.50
2019-04-11T13:04:18.191Z,32.50
2019-04-11T13:06:50.816Z,32.40
2019-04-11T13:09:23.594Z,32.40
2019-04-11T13:11:56.182Z,32.30
2019-04-11T13:14:28.519Z,32.30
2019-04-11T13:17:01.226Z,32.30
2019-04-11T13:19:34.281Z,32.20
2019-04-11T13:22:06.711Z,32.20
2019-04-11T13:24:39.328Z,32.10
2019-04-11T13:27:11.959Z,32.10
2019-04-11T13:29:44.386Z,32.00
2019-04-11T13:32:17.061Z,32.00
2019-04-11T13:34:49.407Z,31.90
2019-04-11T13:37:21.754Z,31.90
2019-04-11T13:39:54.033Z,31.80
2019-04-11T13:42:26.291Z,31.80
2019-04-11T13:44:57.865Z,31.80
2019-04-11T13:47:31.739Z,31.70
2019-04-11T13:50:04.179Z,31.70
2019-04-11T13:52:38.398Z,31.60
2019-04-11T13:55:11.149Z,31.60
2019-04-11T13:57:43.823Z,31.60
2019-04-11T14:00:16.597Z,31.50
2019-04-11T14:02:51.302Z,31.50
2019-04-11T14:05:23.504Z,31.50
2019-04-11T14:07:55.776Z,31.40
2019-04-11T14:10:26.961Z,31.40
2019-04-11T14:13:00.979Z,31.40
2019-04-11T14:15:31.873Z,31.40
2019-04-11T14:18:05.116Z,31.50
2019-04-11T14:20:41.677Z,31.40
2019-04-11T14:23:13.654Z,31.40
2019-04-11T14:25:45.454Z,31.40
2019-04-11T14:28:18.096Z,31.50
2019-04-11T14:30:52.458Z,31.50
2019-04-11T14:33:25.663Z,31.40
2019-04-11T14:35:57.793Z,31.40
2019-04-11T14:38:32.062Z,31.40
2019-04-11T14:41:03.795Z,31.40
2019-04-11T14:43:36.469Z,31.40
2019-04-11T14:46:09.147Z,31.40
2019-04-11T14:58:57.751Z,31.40
2019-04-11T15:04:59.967Z,31.30
2019-04-11T15:07:32.635Z,31.30
2019-04-11T15:10:04.953Z,31.20
2019-04-11T15:12:37.462Z,31.10
2019-04-11T15:15:10.289Z,31.10
2019-04-11T15:57:23.912Z,30.60
2019-04-11T16:06:12.919Z,30.50
2019-04-11T16:08:43.722Z,30.50
2019-04-11T16:11:15.945Z,30.40
2019-04-11T16:13:47.905Z,30.40
2019-04-11T16:19:48.616Z,30.30
2019-04-11T16:22:24.661Z,30.30
2019-04-11T17:22:24.080Z,29.60
2019-04-11T17:28:23.743Z,29.50
2019-04-11T17:30:55.774Z,29.40
2019-04-11T17:33:28.669Z,29.40
2019-04-11T17:36:02.027Z,29.40
2019-04-11T17:38:31.170Z,29.40
2019-04-11T17:41:02.491Z,29.30
2019-04-11T17:43:33.945Z,29.30
2019-04-11T17:46:05.457Z,29.30
2019-04-11T17:48:36.636Z,29.30
2019-04-11T17:51:09.518Z,29.20
2019-04-11T17:53:38.397Z,29.20
2019-04-11T17:56:09.195Z,29.20
2019-04-11T17:58:40.080Z,29.20
2019-04-11T18:01:11.664Z,29.20
2019-04-11T18:03:42.703Z,29.10
2019-04-11T18:06:16.930Z,29.10
2019-04-11T18:08:46.726Z,29.10
2019-04-11T18:11:16.614Z,29.10
2019-04-11T18:13:47.334Z,29.10
2019-04-11T18:16:18.010Z,29.00
2019-04-11T18:18:48.705Z,29.10
2019-04-11T18:21:19.855Z,29.10
2019-04-11T18:23:50.662Z,29.10
2019-04-11T18:26:21.999Z,29.10
2019-04-11T18:28:52.782Z,29.10
2019-04-11T18:31:24.962Z,29.00
2019-04-11T18:33:54.585Z,29.00
2019-04-11T18:36:25.854Z,29.10
2019-04-11T18:38:56.590Z,29.10
2019-04-11T18:41:27.935Z,29.10
2019-04-11T18:43:58.816Z,29.10
2019-04-11T18:46:29.578Z,29.10
2019-04-11T18:49:01.280Z,29.00
2019-04-11T18:51:32.561Z,29.00
2019-04-11T18:54:03.725Z,28.90
2019-04-11T18:56:37.838Z,28.80
2019-04-11T18:59:08.085Z,28.80
2019-04-11T19:01:40.110Z,28.70
2019-04-11T19:04:12.027Z,28.70
2019-04-11T19:06:43.056Z,28.60
2019-04-11T19:09:15.046Z,28.60
2019-04-11T19:11:46.393Z,28.60
2019-04-11T19:14:18.011Z,28.50
2019-04-11T19:16:48.763Z,28.50
2019-04-11T19:19:19.608Z,28.40
2019-04-11T19:21:51.644Z,28.50
2019-04-11T19:24:21.952Z,28.40
2019-04-11T19:26:53.460Z,28.40
2019-04-11T19:29:25.030Z,28.40
2019-04-11T19:31:56.609Z,28.50
2019-04-11T19:34:28.002Z,28.50
2019-04-11T19:36:59.566Z,28.50
2019-04-11T19:39:30.593Z,28.40
2019-04-11T19:42:08.618Z,28.40
2019-04-11T19:44:35.223Z,28.40
2019-04-11T19:47:06.606Z,28.40
2019-04-11T19:49:37.716Z,28.40
2019-04-11T19:52:09.252Z,28.40
2019-04-11T19:54:40.033Z,28.30
2019-04-11T19:57:10.896Z,28.30
2019-04-11T19:59:42.187Z,28.30
2019-04-11T20:02:13.399Z,28.20
2019-04-11T20:04:46.530Z,28.20
2019-04-11T20:07:16.942Z,28.20
2019-04-11T20:09:47.630Z,28.10
2019-04-11T20:12:18.603Z,28.10
2019-04-11T20:14:50.119Z,28.10
2019-04-11T20:17:20.968Z,28.00
2019-04-11T20:20:00.884Z,28.00
2019-04-11T20:22:24.849Z,27.90
2019-04-11T20:24:55.512Z,27.90
2019-04-11T20:27:27.044Z,27.90
2019-04-11T20:29:58.574Z,27.90
2019-04-11T20:32:30.605Z,28.00
2019-04-11T20:35:02.405Z,28.10
2019-04-11T20:37:39.044Z,28.20
2019-04-11T20:40:07.322Z,28.20
2019-04-11T20:42:38.852Z,28.20
2019-04-11T20:45:09.932Z,28.10
2019-04-11T20:47:41.174Z,28.10
2019-04-11T20:50:12.283Z,28.00
2019-04-11T20:52:43.355Z,28.00
2019-04-11T20:55:14.637Z,27.90
2019-04-11T20:57:45.802Z,27.90
2019-04-11T21:00:17.064Z,27.90
2019-04-11T21:02:48.948Z,27.90
2019-04-11T21:05:19.853Z,27.90
2019-04-11T21:07:50.893Z,27.80
2019-04-11T21:10:21.917Z,27.80
2019-04-11T21:12:53.183Z,27.80
2019-04-11T21:15:24.332Z,27.80
2019-04-11T21:17:56.051Z,27.80
2019-04-11T21:20:28.097Z,27.70
2019-04-11T21:22:59.365Z,27.70
2019-04-11T21:25:30.825Z,27.70
2019-04-11T21:28:01.977Z,27.70
2019-04-11T21:30:33.039Z,27.70
2019-04-11T21:33:04.730Z,27.70
2019-04-11T21:35:36.193Z,27.70
2019-04-11T21:38:07.732Z,27.70
2019-04-11T21:40:38.884Z,27.60
2019-04-11T21:43:10.392Z,27.60
2019-04-11T21:45:41.701Z,27.60
2019-04-11T21:48:12.788Z,27.50
2019-04-11T21:50:44.053Z,27.50
2019-04-11T21:53:15.591Z,27.50
2019-04-11T21:55:47.697Z,27.50
2019-04-11T21:58:20.416Z,27.50
2019-04-11T22:00:54.417Z,27.50
2019-04-11T22:03:25.031Z,27.50
2019-04-11T22:05:59.850Z,27.50
2019-04-11T22:08:29.519Z,27.50
2019-04-11T22:11:02.963Z,27.40
2019-04-11T22:13:33.209Z,27.40
2019-04-11T22:16:04.738Z,27.40
2019-04-11T22:18:35.599Z,27.40
2019-04-11T22:21:06.761Z,27.30
2019-04-11T22:23:48.321Z,27.30
2019-04-11T22:26:11.067Z,27.30
2019-04-11T22:28:42.263Z,27.20
2019-04-11T22:31:13.222Z,27.20
2019-04-11T22:33:45.858Z,27.20
2019-04-11T22:36:16.509Z,27.20
2019-04-11T22:38:47.853Z,27.20
2019-04-11T22:41:19.168Z,27.20
2019-04-11T22:43:50.616Z,27.30
2019-04-11T22:46:21.845Z,27.20
2019-04-11T22:48:53.315Z,27.20
2019-04-11T22:51:24.569Z,27.20
2019-04-11T22:54:00.478Z,27.20
2019-04-11T22:56:28.341Z,27.20
2019-04-11T22:58:59.523Z,27.10
2019-04-11T23:01:30.260Z,27.10
2019-04-11T23:04:02.334Z,27.10
2019-04-11T23:06:33.173Z,27.10
2019-04-11T23:09:04.513Z,27.10
2019-04-11T23:11:35.736Z,27.10
2019-04-11T23:14:07.537Z,27.10
2019-04-11T23:16:38.698Z,27.10
2019-04-11T23:19:13.620Z,27.20
2019-04-11T23:21:42.762Z,27.30
2019-04-11T23:24:13.836Z,27.30
2019-04-11T23:26:45.456Z,27.40
2019-04-11T23:29:16.676Z,27.50
2019-04-11T23:31:50.616Z,27.60
2019-04-11T23:34:22.173Z,27.70
2019-04-11T23:36:52.983Z,27.80
2019-04-11T23:39:23.660Z,27.90
2019-04-11T23:41:55.011Z,28.10
2019-04-11T23:44:26.169Z,28.20
2019-04-11T23:46:57.123Z,28.40
2019-04-11T23:49:28.469Z,28.50
2019-04-11T23:51:59.817Z,28.70
2019-04-11T23:54:31.274Z,28.90
2019-04-11T23:57:02.888Z,29.10
2019-04-11T23:59:34.284Z,29.40
